Данни от 09.12.2019 г. 20:37:59

Температура вътрешна: 19.6 °C
Температура външна: 8.8 °C
Атмосферно налягане: 993.9 hPa
Атмосферно налягане на морско равнище: 1011.6 hPa
Влажност: 58.2 %



История от последните 24 часа

Дата и часTin [°C]P [hPa]Psl [hPa]H [%]Tout [°C]
   09.12.2019 г. 20:30:59      19.6      993.9      1011.7      58.6      9.0   
   09.12.2019 г. 20:00:59      19.6      994.1      1011.9      58.7      8.9   
   09.12.2019 г. 19:30:59      19.6      994.1      1011.8      58.9      8.6   
   09.12.2019 г. 19:00:59      19.6      994.1      1011.9      58.7      7.6   
   09.12.2019 г. 18:30:59      19.6      994.0      1011.7      58.6      7.1   
   09.12.2019 г. 18:00:59      19.5      994.0      1011.7      58.9      6.4   
   09.12.2019 г. 17:30:59      19.2      994.1      1011.8      57.9      7.0   
   09.12.2019 г. 17:00:59      18.8      994.1      1011.8      57.1      8.1   
   09.12.2019 г. 16:30:59      18.4      994.1      1011.8      56.6      10.4   
   09.12.2019 г. 16:00:59      18.5      994.3      1012.0      56.6      16.6   
   09.12.2019 г. 15:30:59      18.5      994.3      1012.0      56.6      16.5   
   09.12.2019 г. 15:00:59      18.5      994.4      1012.2      56.8      15.3   
   09.12.2019 г. 14:30:59      18.5      994.6      1012.3      56.6      15.4   
   09.12.2019 г. 14:00:59      18.5      994.8      1012.6      57.0      14.2   
   09.12.2019 г. 13:30:59      18.6      995.1      1012.9      57.0      13.0   
   09.12.2019 г. 13:00:59      18.6      995.5      1013.3      56.4      11.8   
   09.12.2019 г. 12:30:59      18.6      995.9      1013.7      56.9      10.6   
   09.12.2019 г. 12:00:59      18.6      996.4      1014.2      56.8      9.4   
   09.12.2019 г. 11:30:59      18.7      996.9      1014.7      56.8      8.3   
   09.12.2019 г. 11:00:59      18.7      997.4      1015.2      56.8      7.3   
   09.12.2019 г. 10:30:59      18.8      997.7      1015.5      57.7      6.3   
   09.12.2019 г. 10:00:59      18.8      997.8      1015.6      56.9      5.5   
   09.12.2019 г. 09:30:00      18.9      997.8      1015.6      57.5      5.4   
   09.12.2019 г. 09:00:59      18.9      997.7      1015.5      57.0      4.1   
   09.12.2019 г. 08:00:59      19.0      998.2      1016.0      57.2      3.5   
   09.12.2019 г. 07:30:59      19.1      998.3      1016.1      57.8      3.4   
   09.12.2019 г. 07:00:59      19.1      998.3      1016.1      58.2      3.8   
   09.12.2019 г. 06:30:59      19.1      998.3      1016.2      58.5      2.9   
   09.12.2019 г. 06:00:59      19.1      998.3      1016.1      57.3      3.3   
   09.12.2019 г. 05:30:59      19.5      998.3      1016.1      59.1      3.6   
   09.12.2019 г. 05:00:59      19.5      998.3      1016.1      59.3      4.4   
   09.12.2019 г. 04:30:59      19.6      998.5      1016.3      59.0      4.5   
   09.12.2019 г. 04:00:59      19.6      998.9      1016.7      59.0      5.0   
   09.12.2019 г. 03:30:59      19.7      999.3      1017.1      58.5      4.9   
   09.12.2019 г. 03:00:59      19.7      999.7      1017.5      59.1      4.8   
   09.12.2019 г. 02:30:59      19.8      1000.0      1017.8      58.9      5.4   
   09.12.2019 г. 02:00:59      19.8      1000.1      1018.0      58.9      5.8   
   09.12.2019 г. 01:30:59      19.9      1000.2      1018.0      59.1      5.5   
   09.12.2019 г. 01:00:59      20.0      1000.4      1018.3      58.9      6.3   
   09.12.2019 г. 00:30:59      20.2      1000.7      1018.6      59.0      6.8   
   09.12.2019 г. 00:00:59      20.1      1001.0      1018.9      59.1      6.8   
   08.12.2019 г. 23:30:59      20.1      1001.2      1019.1      59.2      6.9   
   08.12.2019 г. 23:00:59      20.1      1001.5      1019.4      59.0      7.0   
   08.12.2019 г. 22:30:59      20.1      1001.6      1019.5      58.9      7.1   
   08.12.2019 г. 22:00:59      20.0      1001.7      1019.5      59.3      6.9   
   08.12.2019 г. 21:30:59      19.9      1001.7      1019.5      59.5      6.5   
   08.12.2019 г. 20:30:59      19.8      1001.9      1019.8      58.6      4.5   
   08.12.2019 г. 20:00:59      19.8      1002.1      1020.0      59.4      4.4   

BaroSL graphic

TEMPE graphic